South Reno (Wolf Run), Nevada Weather observations

Data are for observation ending at time listed.
 Day   Time    Ave.   Ave.  Ave.  Vector   Max.   Stn.    Total    Solar   Ave.  
  of    of     Air    Rel.  Wind   Wind    Wind   Baro.  Precip.   Rad.    Soil  
Year   Day     Temp.  Hum.  Speed  Dir.    Gust   Pres.                    Temp. 
2026   (PST)    F      %     mph   deg.    mph     mb.     in.     W/m2     F   
------------------------------------------------------------------------------
 127   15:40   79.9    16    3.3   330      9.7  99999.0    0.00      15    66.9
 127   15:50   79.8    16    3.4   318     11.2  99999.0    0.00      14    67.1
 127   16:00   80.2    16    2.4   324     11.5  99999.0    0.00      14    67.3
 127   16:10   79.1    18    1.2   309      9.2  99999.0    0.00      14    67.5
 127   16:20   79.6    16    3.1   329      7.5  99999.0    0.00      13    67.6
 127   16:30   77.9    16    3.4   321     10.8  99999.0    0.00      13    67.8
 127   16:40   78.2    16    1.8   309      7.1  99999.0    0.00      13    68.0
 127   16:50   78.0    17    2.3   322      9.5  99999.0    0.00      13    68.1
 127   17:00   76.3    16    4.2   324     10.2  99999.0    0.00      12    68.3
 127   17:10   74.5    18    3.9   318     11.8  99999.0    0.00      10    68.4
 127   17:20   73.8    19    2.6   309     11.9  99999.0    0.00       8    68.5
 127   17:30   73.7    19    1.9   299      8.8  99999.0    0.00       8    68.6
 127   17:40   74.1    19    2.8   322     12.1  99999.0    0.00       7    68.6
 127   17:50   73.7    18    3.1   312     10.2  99999.0    0.00       7    68.7
 127   18:00   72.5    20    3.3   317     11.0  99999.0    0.00       7    68.7
 127   18:10   70.7    22    2.6   318      9.6  99999.0    0.00       7    68.7
 127   18:20   69.1    22    1.6   331      5.5  99999.0    0.00       5    68.7
 127   18:30   68.2    24    0.3   279      3.9  99999.0    0.00       4    68.7
 127   18:40   66.6    25    0.1   236      1.8  99999.0    0.00       4    68.7
 127   18:50   65.2    28    1.3   254      6.6  99999.0    0.00       3    68.7
 127   19:00   64.0    30    1.6   245      6.4  99999.0    0.00       3    68.7
 127   19:10   63.4    27    1.3   241      4.5  99999.0    0.00       3    68.6
 127   19:20   63.0    26    2.0   250      6.4  99999.0    0.00       1    68.4
 127   19:30   62.9    28    1.3   330      7.7  99999.0    0.00       0    68.3
 127   19:40   62.6    30    2.2   245      6.9  99999.0    0.00       0    68.2
 127   19:50   61.7    36    5.2   228     11.3  99999.0    0.00       0    67.5
 127   20:00   58.5    38    5.5   229     15.2  99999.0    0.00       1    66.5
 127   20:10   58.8    41    6.7   230     15.1  99999.0    0.00       1    66.3
 127   20:20   61.8    29    6.4   234     13.0  99999.0    0.00       1    66.1
 127   20:30   62.0    28    5.4   242     11.0  99999.0    0.00       1    66.2
 127   20:40   62.0    24    6.3   240     14.5  99999.0    0.00       1    66.5
 127   20:50   61.7    26    1.5   223      5.8  99999.0    0.00       1    66.2
 127   21:00   58.7    35    1.0   201      3.4  99999.0    0.00       1    66.2
 127   21:10   59.1    31    2.0   209      4.2  99999.0    0.00       1    66.2
 127   21:20   58.7    32    3.6   229      5.8  99999.0    0.00       1    66.1
 127   21:30   58.0    36    5.0   242      7.1  99999.0    0.00       0    66.1
 127   21:40   58.1    40    3.7   246      8.0  99999.0    0.00       0    66.1
 127   21:50   57.4    42    3.3   244      7.9  99999.0    0.00       0    66.0
 127   22:00   57.2    41    4.2   240      7.7  99999.0    0.00       0    65.9
 127   22:10   56.1    40    4.7   241      8.5  99999.0    0.00       0    65.8
 127   22:20   55.0    34    0.5   254      4.1  99999.0    0.00       0    65.7
 127   22:30   54.8    28    1.3   242      4.4  99999.0    0.00       0    65.6
 127   22:40   54.0    29    0.8   242      3.5  99999.0    0.00       0    65.5
 127   22:50   52.5    31    0.1   248      1.5  99999.0    0.00       0    65.4
 127   23:00   51.5    33    0.0     0      0.0  99999.0    0.00       0    65.3
 127   23:10   51.1    36    0.8   244      3.2  99999.0    0.00       0    65.2
 127   23:20   51.2    35    0.8   244      3.5  99999.0    0.00       0    65.1
 127   23:30   51.0    37    0.8   241      3.5  99999.0    0.00       0    65.0
 127   23:40   50.2    38    0.2   242      3.3  99999.0    0.00       0    64.9
 127   23:50   50.2    36    3.7   243      4.9  99999.0    0.00       0    64.8
 128    0:00   51.0    30    4.7   242      7.6  99999.0    0.00       0    64.7
 128    0:10   52.6    24    4.2   243      7.5  99999.0    0.00       0    64.5
 128    0:20   51.4    27    0.4   242      2.4  99999.0    0.00       0    64.5
 128    0:30   50.7    28    1.3   241      5.4  99999.0    0.00       0    64.3
 128    0:40   50.6    28    1.6   225      5.6  99999.0    0.00       0    64.3
 128    0:50   51.1    26    1.0   192      2.6  99999.0    0.00       0    64.1
 128    1:00   50.4    27    0.6   243      4.5  99999.0    0.00       0    64.1
 128    1:10   49.3    28    0.0   249      1.5  99999.0    0.00       0    64.0
 128    1:20   49.2    29    2.3   243      4.4  99999.0    0.00       0    63.9
 128    1:30   49.1    28    1.9   240      4.5  99999.0    0.00       0    63.8
 128    1:40   48.8    30    1.8   243      3.9  99999.0    0.00       0    63.7
 128    1:50   47.6    33    0.9   243      3.0  99999.0    0.00       0    63.6
 128    2:00   48.0    32    3.2   239      7.0  99999.0    0.00       0    63.5
 128    2:10   48.2    32    3.7   241      6.4  99999.0    0.00       0    63.4
 128    2:20   47.9    34    2.2   238      5.8  99999.0    0.00       0    63.3
 128    2:30   47.1    32    3.3   240      6.4  99999.0    0.00       0    63.2
 128    2:40   48.1    28    3.8   241      6.1  99999.0    0.00       0    63.1
 128    2:50   47.8    28    3.1   240      5.1  99999.0    0.00       0    63.0
 128    3:00   47.0    32    0.2   240      3.8  99999.0    0.00       0    63.0
 128    3:10   46.3    31    1.7   241      5.0  99999.0    0.00       0    62.9
 128    3:20   46.0    33    0.1   241      1.3  99999.0    0.00       0    62.8
 128    3:30   44.9    36    0.0   241      0.8  99999.0    0.00       0    62.7
 128    3:40   45.2    33    1.2   241      3.5  99999.0    0.00       0    62.6
 128    3:50   45.5    34    1.3   244      3.4  99999.0    0.00       0    62.5
 128    4:00   44.7    36    2.3   242      4.8  99999.0    0.00       0    62.5
 128    4:10   44.7    38    0.0   241      1.2  99999.0    0.00       0    62.4
 128    4:20   43.5    41    0.2   241      1.9  99999.0    0.00       0    62.3
 128    4:30   44.2    41    3.4   240      5.8  99999.0    0.00       0    62.2
 128    4:40   44.7    43    1.0   241      4.5  99999.0    0.00       1    62.1
 128    4:50   44.5    45    0.6   242      4.1  99999.0    0.00       2    62.0
 128    5:00   44.5    44    1.4   238      5.1  99999.0    0.00       3    61.9
 128    5:10   44.7    37    2.0   242      5.0  99999.0    0.00       3    61.8
 128    5:20   45.5    33    2.5   242      4.7  99999.0    0.00       3    61.7
 128    5:30   47.4    33    0.5   241      2.8  99999.0    0.00       3    61.6
 128    5:40   49.7    32    0.1   239      1.9  99999.0    0.00       3    61.5
 128    5:50   51.5    32    0.5   237      3.7  99999.0    0.00       4    61.4
 128    6:00   55.1    31    0.0     0      0.0  99999.0    0.00       4    61.3
 128    6:10   56.8    31    0.2    14      1.4  99999.0    0.00       4    61.2
 128    6:20   57.5    31    0.0     7      0.9  99999.0    0.00       4    61.1
 128    6:30   57.8    32    0.2     5      1.1  99999.0    0.00       4    61.0
 128    6:40   58.0    34    1.3    35      3.4  99999.0    0.00       4    60.9
 128    6:50   58.2    34    2.8    87      5.3  99999.0    0.00       4    60.8
 128    7:00   58.3    38    0.4    90      3.7  99999.0    0.00       3    60.7
 128    7:10   58.5    34    0.3    21      1.5  99999.0    0.00       4    60.7
 128    7:20   59.1    35    1.1    20      3.6  99999.0    0.00       4    60.6
 128    7:30   59.5    36    1.8    58      5.0  99999.0    0.00       4    60.5
 128    7:40   60.4    34    2.4    61      5.4  99999.0    0.00       5    60.5
 128    7:50   60.0    33    2.2    61      5.7  99999.0    0.00       5    60.4
 128    8:00   60.8    31    1.2    30      3.5  99999.0    0.00       5    60.4
 128    8:10   62.6    29    0.7    53      2.1  99999.0    0.00       5    60.3
 128    8:20   63.3    29    1.1    24      4.7  99999.0    0.00       5    60.2
 128    8:30   64.3    28    1.5    55      3.3  99999.0    0.00       5    60.2
 128    8:40   65.6    23    1.7    74      5.3  99999.0    0.00       6    60.1
 128    8:50   66.3    21    1.1    37      3.9  99999.0    0.00       7    60.0
 128    9:00   66.6    23    1.3    35      4.6  99999.0    0.00       7    60.0
 128    9:10   67.2    21    1.6    22      4.8  99999.0    0.00       7    59.9
 128    9:20   67.3    21    1.8    12      5.6  99999.0    0.00       7    59.8
 128    9:30   68.7    19    2.1    66      5.6  99999.0    0.00       7    59.8
 128    9:40   69.3    18    1.2    12      4.7  99999.0    0.00       7    59.7
 128    9:50   69.0    19    1.6     2      5.3  99999.0    0.00       7    59.7
 128   10:00   69.8    17    2.0    40      4.5  99999.0    0.00       7    59.7
 128   10:10   71.0    19    0.7    22      3.7  99999.0    0.00       7    59.6
 128   10:20   71.3    16    1.9    16      6.5  99999.0    0.00       7    59.6
 128   10:30   71.8    17    1.8   337      5.3  99999.0    0.00       7    59.5
 128   10:40   73.5    18    0.7   356      4.8  99999.0    0.00       8    59.4
 128   10:50   73.9    16    1.6   359      6.2  99999.0    0.00       8    59.5
 128   11:00   74.0    15    2.6    90      6.6  99999.0    0.00       8    59.5
 128   11:10   75.2    16    1.6    48      6.0  99999.0    0.00       9    59.6
 128   11:20   74.1    12    2.9    44      5.2  99999.0    0.00       9    59.8
 128   11:30   74.1    13    1.4     4      6.3  99999.0    0.00       9    59.9
 128   11:40   75.2    12    2.4    14      5.3  99999.0    0.00       9    60.2
 128   11:50   75.4    13    0.4    54      2.9  99999.0    0.00       9    60.4
 128   12:00   75.7    14    3.3    81      7.4  99999.0    0.00       9    60.5
 128   12:10   74.8    14    1.3   331      6.9  99999.0    0.00       9    60.8
 128   12:20   76.8    14    1.1   325      7.1  99999.0    0.00       9    61.1
 128   12:30   77.4    13    1.2   345      6.1  99999.0    0.00       9    61.3
 128   12:40   77.2    13    2.0    24      6.6  99999.0    0.00       9    61.5
 128   12:50   75.9    15    2.9   210      6.4  99999.0    0.00       9    61.9
 128   13:00   77.6    13    2.9    17      6.5  99999.0    0.00       9    62.2
 128   13:10   77.7    13    1.6   327      6.1  99999.0    0.00       9    62.4
 128   13:20   79.0    13    0.9    25      4.4  99999.0    0.00       9    62.6
 128   13:30   78.9    13    2.3    73      7.5  99999.0    0.00       9    62.9
 128   13:40   80.2    13    3.0    37      6.6  99999.0    0.00       9    63.2
 128   13:50   80.2    12    2.6    35      6.7  99999.0    0.00       9    63.5
 128   14:00   80.4    16    1.8     3      7.1  99999.0    0.00       9    63.9
 128   14:10   81.1    13    2.2    41      5.6  99999.0    0.00       9    64.2
 128   14:20   81.0    14    2.3    48      6.7  99999.0    0.00       9    64.6
 128   14:30   80.5    13    3.2    51      7.8  99999.0    0.00       9    65.0
 128   14:40   79.9    12    3.2    64      9.0  99999.0    0.00       9    65.3
 128   14:50   80.9    13    1.9    25      6.8  99999.0    0.00       9    65.6
 128   15:00   81.6    14    1.4   128      5.3  99999.0    0.00       9    65.8
 128   15:10   82.7    13    1.6   190      4.2  99999.0    0.00       9    66.1
 128   15:20   82.2    16    1.2   248      5.9  99999.0    0.00       9    66.3
 128   15:30   80.2    13    1.5   259      5.8  99999.0    0.00       9    66.6

Return to South Reno, Nevada graphs page.


Western Regional Climate Center,wrcc@dri.edu